Huvudsida
METAR-TAF:

METAR-TAF

Flygplatser :

Cannes, Frankrike

latitud: 43-33N, longitud: 006-57E, höjd: 3 m

Aktuellt väderrapport

Denna rapport gjordes för 36 minuter sedan, klockan 19:00 UTC
Vind 2 kt varierande vindriktning
Temperatur 10°C
Fuktighet 62%
Tryck 1019 hPa
Sikt 10 km eller mer
Inga moln under 1 500 m eller inga cumulonimbus

METAR: LFMD 281900Z AUTO VRB02KT CAVOK 10/03 Q1019 NOSIG

Tid: 20:36 (19:36 UTC)

Väderprognos

Denna rapport gjordes för 5 timmar och 36 minuter sedan, klockan 14:00 UTC
Prognos gäller från 28 kl. 15 UTC till 29 kl. 15 UTC
Vind 10 kt från syd
Sikt 10 km eller mer
Inga moln under 1 500 m eller inga cumulonimbus
Blir
från 28 kl. 17 UTC till 28 kl. 19 UTC
Vind 5 kt från nord
Temporärt
från 29 kl. 10 UTC till 29 kl. 15 UTC
Vind 10 kt från ost

TAF: LFMD 281400Z 2815/2915 17010KT CAVOK BECMG 2817/2819 35005KT TEMPO 2910/2915 10010KT

Aktuella väderrapporter och prognoser från 4000 flygplatser (METAR- och TAF-rapporter).

De tillgängliga stationerna syns som gula och röda prickar på kartan.

För musen över prickarna för att se namnen på stationerna.

Klicka sedan för att få väderrapporter och prognoser.

För att ändra kartan: Klicka på de gröna knapparna med ett svart kors på för att zooma in; den gröna knappen med ett streck på för att zooma ut; eller på de gröna pilarna för angränsande kartor.


METAR-TAF: